GCHI/VDE METAR and TAF weather

Enter ICAO airport designator
Station Type Date Time Source
GCHI METAR 2020/11/27 14:30 UTC NOAA

GCHI 271430Z 35019KT 9999 FEW035 22/11 Q1016


Station Type Date Time Source
GCHI Decoded METAR 2020/11/27 14:30 UTC NOAA

Hierro / Aeropuerto, Spain (GCHI) 27-49N 017-53W 32M
Nov 27, 2020 - 09:30 AM EST / 2020.11.27 1430 UTC
Wind: from the N (350 degrees) at 22 MPH (19 KT):0
Visibility: greater than 7 mile(s):0
Sky conditions: mostly clear
Temperature: 71 F (22 C)
Dew Point: 51 F (11 C)
Relative Humidity: 49%
Pressure (altimeter): 30.00 in. Hg (1016 hPa)
ob: GCHI 271430Z 35019KT 9999 FEW035 22/11 Q1016
cycle: 14

Station Type Date Time Source
GCHI TAF 2020/11/27 15:00 UTC NOAA

TAF GCHI 271400Z 2715/2815 35020KT 9999 SCT030 TX23/2814Z TN19/2807Z
BECMG 2721/2723 32008KT

Example: see airport list